Rinard, Illinois
Current Conditions -  °F | °C
As of 5:35 PM on Saturday 25 Oct 2014 (Local Time) from KFOA Reporting Station
Clear Clear  
Wind Chill: 74°   Ceiling: Unl
Heat Index: 74°   Visibility: 10mi
Dew Point: 52°   Wind: 3mph
Humidity: 45%   Direction: 290°WNW
Pressure: 30"   Gusts: NA
Location:  38.57°N, 88.47°W
Report Text: KFOA 252235Z AUTO 29003KT 10SM CLR 23/11 A3000 RMK AO2 T02330109
Loading
Personal Weather Stations






























Interactive Weather Map
Tropical Storm Tracking
New forecast layout! Learn more

10-Day Weather Forecast

Advertisements
Track Severe Weather on mobile